createdAt,value
2023-07-15T00:02:18.933Z,50.69
2023-07-15T00:05:25.331Z,51.10
2023-07-15T00:08:29.118Z,51.23
2023-07-15T00:11:35.836Z,51.26
2023-07-15T00:14:40.658Z,51.90
2023-07-15T00:17:44.316Z,51.69
2023-07-15T00:20:48.135Z,51.76
2023-07-15T00:23:54.514Z,52.50
2023-07-15T00:27:00.090Z,52.29
2023-07-15T00:30:05.364Z,51.90
2023-07-15T00:33:14.725Z,52.66
2023-07-15T00:36:18.670Z,52.18
2023-07-15T00:39:21.910Z,51.80
2023-07-15T00:43:03.654Z,52.13
2023-07-15T00:46:50.255Z,51.21
2023-07-15T00:49:53.669Z,51.37
2023-07-15T00:52:56.864Z,51.71
2023-07-15T00:56:00.123Z,51.11
2023-07-15T00:59:04.342Z,51.55
2023-07-15T01:02:10.417Z,51.14
2023-07-15T01:05:13.966Z,50.82
2023-07-15T01:08:17.115Z,51.32
2023-07-15T01:11:21.179Z,50.88
2023-07-15T01:14:24.512Z,51.05
2023-07-15T01:17:29.630Z,51.31
2023-07-15T01:20:33.632Z,51.45
2023-07-15T01:23:38.445Z,51.87
2023-07-15T01:26:41.559Z,51.56
2023-07-15T01:29:45.513Z,51.26
2023-07-15T01:32:48.902Z,50.69
2023-07-15T01:35:52.255Z,50.91
2023-07-15T01:38:57.198Z,50.93
2023-07-15T01:42:00.217Z,51.05
2023-07-15T01:45:04.829Z,52.13
2023-07-15T01:48:08.900Z,51.21
2023-07-15T01:51:12.210Z,51.26
2023-07-15T01:54:16.702Z,51.29
2023-07-15T01:57:19.732Z,51.02
2023-07-15T02:00:22.826Z,51.05
2023-07-15T02:03:26.032Z,51.40
2023-07-15T02:06:29.306Z,51.32
2023-07-15T02:09:35.516Z,51.01
2023-07-15T02:12:38.975Z,50.63
2023-07-15T02:15:42.079Z,51.08
2023-07-15T02:18:45.306Z,50.68
2023-07-15T02:21:48.397Z,51.03
2023-07-15T02:24:53.022Z,50.55
2023-07-15T02:27:56.200Z,51.14
2023-07-15T02:30:59.431Z,50.83
2023-07-15T02:34:02.602Z,50.89
2023-07-15T02:37:05.884Z,50.44
2023-07-15T02:40:11.767Z,51.11
2023-07-15T02:43:14.987Z,50.49
2023-07-15T02:46:18.291Z,51.03
2023-07-15T02:49:21.639Z,50.39
2023-07-15T02:52:25.645Z,50.29
2023-07-15T02:55:31.311Z,50.36
2023-07-15T02:58:35.265Z,50.46
2023-07-15T03:01:39.029Z,50.11
2023-07-15T03:04:42.231Z,51.26
2023-07-15T03:07:46.357Z,50.48
2023-07-15T03:10:51.525Z,50.87
2023-07-15T03:13:55.637Z,50.25
2023-07-15T03:16:58.755Z,51.15
2023-07-15T03:20:01.905Z,50.88
2023-07-15T03:23:05.439Z,50.67
2023-07-15T03:26:10.075Z,50.65
2023-07-15T03:29:13.284Z,51.19
2023-07-15T03:32:16.934Z,51.53
2023-07-15T03:35:19.956Z,51.09
2023-07-15T03:38:23.105Z,51.57
2023-07-15T03:41:27.870Z,51.06
2023-07-15T03:44:30.870Z,51.37
2023-07-15T03:47:35.171Z,52.11
2023-07-15T03:50:38.304Z,53.26
2023-07-15T03:53:41.690Z,53.19
2023-07-15T03:56:46.189Z,53.06
2023-07-15T03:59:49.261Z,53.03
2023-07-15T04:02:55.437Z,53.38
2023-07-15T04:05:58.589Z,52.90
2023-07-15T04:09:01.698Z,52.59
2023-07-15T04:12:09.475Z,52.06
2023-07-15T04:15:12.884Z,51.55
2023-07-15T04:18:17.995Z,51.59
2023-07-15T04:21:21.013Z,51.55
2023-07-15T04:24:24.032Z,51.31
2023-07-15T04:27:28.485Z,51.94
2023-07-15T04:30:31.632Z,51.36
2023-07-15T04:33:34.990Z,51.63
2023-07-15T04:36:38.175Z,51.31
2023-07-15T04:39:41.389Z,51.33
2023-07-15T04:42:46.829Z,51.66
2023-07-15T04:45:50.139Z,51.82
2023-07-15T04:48:53.667Z,51.52
2023-07-15T04:51:56.803Z,51.85
2023-07-15T04:55:00.205Z,52.16
2023-07-15T04:58:05.055Z,51.47
2023-07-15T05:01:08.656Z,52.47
2023-07-15T05:04:11.813Z,52.57
2023-07-15T05:07:15.075Z,52.69
2023-07-15T05:10:18.126Z,53.10
2023-07-15T05:13:23.099Z,51.89
2023-07-15T05:16:26.385Z,53.01
2023-07-15T05:19:29.591Z,52.30
2023-07-15T05:22:32.713Z,51.34
2023-07-15T05:25:36.927Z,51.83
2023-07-15T05:28:41.597Z,52.01
2023-07-15T05:31:47.072Z,51.61
2023-07-15T05:34:50.742Z,52.21
2023-07-15T05:37:53.838Z,53.08
2023-07-15T05:40:58.226Z,51.93
2023-07-15T05:44:03.135Z,51.64
2023-07-15T05:47:06.675Z,52.21
2023-07-15T05:50:10.998Z,52.14
2023-07-15T05:53:14.108Z,52.19
2023-07-15T05:56:17.680Z,51.99
2023-07-15T05:59:23.281Z,53.19
2023-07-15T06:02:27.888Z,52.96
2023-07-15T06:05:31.986Z,53.39
2023-07-15T06:08:35.141Z,53.75
2023-07-15T06:11:38.152Z,52.78
2023-07-15T06:14:42.674Z,52.50
2023-07-15T06:17:46.173Z,52.74
2023-07-15T06:20:50.122Z,52.32
2023-07-15T06:23:53.183Z,52.72
2023-07-15T06:26:56.409Z,52.64
2023-07-15T06:30:01.722Z,52.27
2023-07-15T06:33:04.944Z,52.15
2023-07-15T06:36:09.074Z,51.93
2023-07-15T06:39:12.189Z,51.47
2023-07-15T06:42:15.479Z,51.98
2023-07-15T06:45:21.717Z,52.28
2023-07-15T06:48:25.198Z,51.40
2023-07-15T06:51:28.271Z,51.78
2023-07-15T06:54:33.871Z,51.55
2023-07-15T06:57:36.939Z,51.99
2023-07-15T07:00:42.486Z,51.67
2023-07-15T07:03:46.462Z,50.90
2023-07-15T07:06:49.584Z,50.87
2023-07-15T07:09:52.613Z,51.16
2023-07-15T07:12:55.660Z,50.45
2023-07-15T07:16:00.672Z,50.19
2023-07-15T07:19:03.995Z,49.94
2023-07-15T07:22:07.296Z,50.52
2023-07-15T07:25:11.369Z,50.04
2023-07-15T07:28:14.481Z,50.45
2023-07-15T07:31:20.000Z,49.81
2023-07-15T07:34:23.411Z,49.57
2023-07-15T07:37:26.935Z,49.67
2023-07-15T07:40:30.242Z,49.52
2023-07-15T07:43:33.633Z,49.13
2023-07-15T07:46:38.433Z,47.65
2023-07-15T07:49:41.619Z,46.58
2023-07-15T07:52:44.756Z,45.74
2023-07-15T07:55:47.771Z,45.04
2023-07-15T07:58:55.981Z,43.53
2023-07-15T08:02:00.452Z,43.23
2023-07-15T08:05:03.798Z,43.01
2023-07-15T08:08:06.956Z,42.00
2023-07-15T08:11:10.009Z,41.07
2023-07-15T08:14:13.108Z,40.91
2023-07-15T08:17:17.985Z,41.55
2023-07-15T08:20:21.065Z,40.62
2023-07-15T08:23:24.108Z,40.38
2023-07-15T08:26:27.471Z,40.18
2023-07-15T08:29:30.535Z,39.94
2023-07-15T08:32:34.978Z,39.55
2023-07-15T08:35:38.223Z,38.87
2023-07-15T08:38:41.443Z,39.38
2023-07-15T08:41:45.019Z,38.83
2023-07-15T08:44:48.659Z,38.78
2023-07-15T08:47:53.508Z,38.91
2023-07-15T08:50:59.380Z,39.28
2023-07-15T08:54:03.681Z,39.07
2023-07-15T08:57:08.941Z,38.62
2023-07-15T09:00:13.405Z,39.01
2023-07-15T09:03:18.065Z,39.69
2023-07-15T09:06:21.200Z,40.98
2023-07-15T09:09:33.318Z,41.51
2023-07-15T09:12:36.369Z,41.88
2023-07-15T09:15:39.453Z,42.49
2023-07-15T09:18:45.479Z,42.60
2023-07-15T09:21:54.158Z,43.27
2023-07-15T09:25:04.821Z,42.38
2023-07-15T09:28:10.730Z,42.20
2023-07-15T09:31:23.953Z,42.28
2023-07-15T09:34:28.841Z,41.81
2023-07-15T09:37:33.241Z,42.24
2023-07-15T09:40:43.229Z,41.95
2023-07-15T09:43:48.140Z,41.52
2023-07-15T09:46:51.527Z,41.30
2023-07-15T09:49:56.165Z,41.30
2023-07-15T09:53:01.376Z,41.26
2023-07-15T09:56:07.791Z,41.57
2023-07-15T09:59:17.691Z,40.11
2023-07-15T10:02:34.624Z,39.57
2023-07-15T10:05:39.807Z,39.27
2023-07-15T10:08:43.781Z,39.29
2023-07-15T10:11:47.264Z,39.15
2023-07-15T10:14:51.040Z,38.84
2023-07-15T10:17:54.294Z,38.61
2023-07-15T10:21:00.180Z,38.42
2023-07-15T10:24:11.517Z,38.18
2023-07-15T10:27:16.191Z,38.73
2023-07-15T10:30:24.934Z,38.40
2023-07-15T10:33:28.248Z,38.81
2023-07-15T10:36:40.376Z,38.70
2023-07-15T10:39:44.214Z,38.31
2023-07-15T10:42:47.345Z,38.17
2023-07-15T10:45:54.020Z,38.35
2023-07-15T10:48:57.166Z,37.77
2023-07-15T10:52:02.099Z,38.16
2023-07-15T10:55:05.090Z,38.32
2023-07-15T10:58:09.542Z,38.28
2023-07-15T11:01:14.153Z,38.22
2023-07-15T11:04:21.274Z,38.66
2023-07-15T11:07:26.727Z,38.72
2023-07-15T11:10:35.169Z,38.62
2023-07-15T11:13:39.223Z,39.18
2023-07-15T11:16:42.377Z,39.10
2023-07-15T11:19:45.482Z,39.30
2023-07-15T11:22:49.989Z,39.43
2023-07-15T11:25:53.109Z,39.17
2023-07-15T11:28:58.932Z,39.50
2023-07-15T11:32:03.550Z,38.72
2023-07-15T11:35:14.192Z,39.08
2023-07-15T11:38:30.757Z,39.13
2023-07-15T11:41:35.426Z,39.04
2023-07-15T11:44:38.764Z,39.31
2023-07-15T11:47:44.117Z,39.04
2023-07-15T11:50:47.453Z,38.63
2023-07-15T11:53:54.688Z,38.60
2023-07-15T11:56:59.911Z,38.53
2023-07-15T12:00:03.850Z,38.03
2023-07-15T12:03:10.072Z,38.29
2023-07-15T12:06:17.818Z,38.10
2023-07-15T12:09:23.935Z,37.93
2023-07-15T12:12:26.993Z,38.37
2023-07-15T12:15:30.132Z,38.47
2023-07-15T12:18:33.176Z,39.25
2023-07-15T12:21:36.374Z,39.92
2023-07-15T12:24:42.943Z,39.98
2023-07-15T12:27:48.384Z,39.50
2023-07-15T12:30:51.525Z,38.90
2023-07-15T12:33:54.668Z,40.79
2023-07-15T12:36:59.479Z,40.80
2023-07-15T12:40:04.530Z,39.81
2023-07-15T12:43:07.623Z,40.06
2023-07-15T12:46:11.163Z,40.89
2023-07-15T12:49:14.285Z,40.17
2023-07-15T12:52:17.466Z,40.61
2023-07-15T12:55:21.908Z,41.14
2023-07-15T12:58:25.694Z,40.74
2023-07-15T13:01:28.971Z,41.02
2023-07-15T13:04:32.352Z,39.85
2023-07-15T13:07:35.551Z,41.10
2023-07-15T13:10:40.097Z,41.54
2023-07-15T13:13:43.165Z,41.12
2023-07-15T13:16:46.335Z,40.32
2023-07-15T13:19:49.411Z,41.02
2023-07-15T13:22:52.557Z,41.51
2023-07-15T13:25:56.996Z,41.04
2023-07-15T13:29:00.128Z,40.64
2023-07-15T13:32:03.464Z,41.70
2023-07-15T13:35:07.186Z,40.23
2023-07-15T13:38:10.211Z,40.82
2023-07-15T13:41:14.778Z,41.21
2023-07-15T13:44:18.050Z,45.80
2023-07-15T13:47:21.252Z,48.17
2023-07-15T13:50:24.467Z,47.24
2023-07-15T13:53:27.596Z,46.93
2023-07-15T13:56:32.251Z,46.47
2023-07-15T13:59:35.353Z,47.05
2023-07-15T14:02:38.487Z,46.95
2023-07-15T14:05:41.688Z,47.07
2023-07-15T14:08:44.782Z,46.17
2023-07-15T14:11:49.367Z,45.67
2023-07-15T14:14:52.526Z,45.55
2023-07-15T14:17:57.440Z,46.07
2023-07-15T14:21:00.605Z,45.38
2023-07-15T14:24:05.295Z,45.59
2023-07-15T14:27:11.792Z,44.80
2023-07-15T14:30:15.073Z,45.03
2023-07-15T14:33:18.201Z,42.89
2023-07-15T14:36:21.286Z,46.81
2023-07-15T14:39:24.502Z,46.18
2023-07-15T14:42:29.214Z,45.84
2023-07-15T14:45:32.645Z,46.35
2023-07-15T14:48:36.347Z,45.84
2023-07-15T14:51:39.514Z,45.57
2023-07-15T14:54:42.624Z,44.91
2023-07-15T14:57:47.400Z,44.24
2023-07-15T15:00:50.589Z,43.97
2023-07-15T15:03:53.776Z,43.21
2023-07-15T15:06:56.934Z,42.91
2023-07-15T15:09:59.990Z,42.09
2023-07-15T15:13:04.537Z,41.93
2023-07-15T15:16:11.510Z,41.46
2023-07-15T15:19:14.630Z,40.95
2023-07-15T15:22:17.855Z,41.22
2023-07-15T15:25:20.925Z,40.90
2023-07-15T15:28:25.484Z,40.45
2023-07-15T15:31:28.731Z,40.24
2023-07-15T15:34:31.951Z,40.18
2023-07-15T15:37:35.541Z,41.35
2023-07-15T15:40:38.744Z,41.65
2023-07-15T15:43:43.345Z,41.39
2023-07-15T15:46:46.457Z,41.64
2023-07-15T15:49:49.595Z,41.93
2023-07-15T15:52:52.702Z,42.16
2023-07-15T15:55:55.889Z,42.69
2023-07-15T15:59:00.455Z,43.28
2023-07-15T16:02:03.805Z,43.03
2023-07-15T16:05:07.933Z,44.02
2023-07-15T16:08:10.987Z,44.74
2023-07-15T16:11:14.556Z,44.89
2023-07-15T16:14:19.413Z,46.45
2023-07-15T16:17:22.630Z,46.98
2023-07-15T16:20:25.899Z,47.26
2023-07-15T16:23:28.917Z,46.54
2023-07-15T16:26:32.011Z,46.02
2023-07-15T16:29:36.607Z,45.99
2023-07-15T16:32:39.639Z,45.91
2023-07-15T16:35:42.814Z,45.77
2023-07-15T16:38:45.850Z,45.77
2023-07-15T16:41:49.160Z,45.28
2023-07-15T16:44:53.596Z,45.75
2023-07-15T16:47:56.905Z,46.16
2023-07-15T16:51:00.018Z,45.42
2023-07-15T16:54:03.121Z,45.48
2023-07-15T16:57:06.759Z,45.38
2023-07-15T17:00:12.743Z,45.78
2023-07-15T17:03:15.916Z,45.88
2023-07-15T17:06:19.125Z,44.90
2023-07-15T17:09:32.404Z,45.05
2023-07-15T17:12:35.793Z,44.77
2023-07-15T17:15:40.289Z,44.88
2023-07-15T17:18:43.350Z,44.71
2023-07-15T17:21:46.571Z,44.48
2023-07-15T17:24:52.716Z,44.78
2023-07-15T17:27:55.959Z,44.38
2023-07-15T17:31:00.414Z,43.85
2023-07-15T17:34:03.682Z,43.94
2023-07-15T17:37:07.577Z,43.48
2023-07-15T17:40:11.362Z,43.00
2023-07-15T17:43:14.403Z,42.79
2023-07-15T17:46:18.977Z,42.87
2023-07-15T17:49:22.102Z,42.99
2023-07-15T17:52:25.482Z,43.90
2023-07-15T17:55:28.536Z,44.12
2023-07-15T17:58:31.699Z,44.52
2023-07-15T18:01:36.194Z,44.91
2023-07-15T18:04:40.128Z,44.74
2023-07-15T18:07:43.199Z,45.26
2023-07-15T18:10:46.305Z,45.69
2023-07-15T18:13:49.397Z,45.01
2023-07-15T18:16:55.168Z,45.16
2023-07-15T18:19:58.198Z,45.18
2023-07-15T18:23:01.405Z,45.23
2023-07-15T18:26:04.541Z,46.10
2023-07-15T18:29:07.592Z,45.41
2023-07-15T18:32:12.820Z,46.40
2023-07-15T18:35:16.021Z,47.19
2023-07-15T18:38:19.220Z,47.66
2023-07-15T18:41:22.283Z,48.88
2023-07-15T18:44:25.474Z,53.28
2023-07-15T18:47:29.979Z,55.67
2023-07-15T18:50:33.098Z,56.85
2023-07-15T18:53:36.167Z,57.25
2023-07-15T18:56:39.257Z,56.98
2023-07-15T18:59:42.488Z,57.52
2023-07-15T19:02:47.110Z,57.72
2023-07-15T19:05:51.587Z,57.95
2023-07-15T19:08:54.698Z,57.68
2023-07-15T19:11:57.808Z,57.68
2023-07-15T19:15:00.907Z,57.83
2023-07-15T19:18:05.495Z,58.09
2023-07-15T19:21:08.684Z,58.75
2023-07-15T19:27:37.302Z,58.29
2023-07-15T19:30:40.593Z,57.87
2023-07-15T19:33:46.932Z,58.14
2023-07-15T19:36:50.209Z,58.19
2023-07-15T19:39:53.239Z,57.57
2023-07-15T19:42:56.346Z,58.24
2023-07-15T19:45:59.492Z,57.42
2023-07-15T19:49:04.312Z,58.21
2023-07-15T19:52:07.903Z,58.18
2023-07-15T19:55:10.951Z,58.08
2023-07-15T19:58:14.086Z,57.84
2023-07-15T20:01:17.136Z,58.17
2023-07-15T20:04:21.741Z,58.07
2023-07-15T20:07:24.912Z,57.52
2023-07-15T20:10:28.152Z,57.90
2023-07-15T20:13:31.265Z,57.31
2023-07-15T20:16:36.065Z,57.27
2023-07-15T20:19:40.967Z,57.25
2023-07-15T20:22:44.242Z,56.74
2023-07-15T20:25:47.623Z,56.22
2023-07-15T20:28:50.818Z,56.16
2023-07-15T20:31:53.967Z,56.13
2023-07-15T20:34:58.788Z,55.87
2023-07-15T20:38:01.866Z,56.44
2023-07-15T20:41:06.036Z,55.91
2023-07-15T20:44:09.365Z,55.82
2023-07-15T20:47:12.449Z,56.53
2023-07-15T20:50:18.183Z,56.71
2023-07-15T20:53:21.412Z,56.24
2023-07-15T20:56:24.571Z,56.32
2023-07-15T20:59:27.649Z,56.36
2023-07-15T21:02:30.771Z,56.85
2023-07-15T21:05:35.441Z,56.25
2023-07-15T21:08:38.639Z,56.72
2023-07-15T21:11:42.080Z,57.21
2023-07-15T21:14:45.157Z,56.03
2023-07-15T21:17:48.269Z,56.87
2023-07-15T21:20:54.255Z,56.75
2023-07-15T21:23:57.865Z,56.96
2023-07-15T21:27:00.945Z,55.99
2023-07-15T21:30:05.175Z,56.87
2023-07-15T21:33:08.194Z,56.69
2023-07-15T21:36:12.846Z,56.18
2023-07-15T21:39:16.545Z,56.46
2023-07-15T21:42:19.647Z,56.81
2023-07-15T21:45:22.727Z,56.48
2023-07-15T21:48:25.807Z,56.02
2023-07-15T21:51:30.273Z,56.52
2023-07-15T21:54:33.275Z,56.61
2023-07-15T21:57:36.481Z,55.77
2023-07-15T22:00:40.012Z,55.78
2023-07-15T22:03:43.206Z,55.71
2023-07-15T22:06:47.769Z,54.95
2023-07-15T22:09:50.789Z,55.94
2023-07-15T22:12:53.846Z,56.00
2023-07-15T22:15:57.171Z,55.19
2023-07-15T22:19:00.242Z,55.14
2023-07-15T22:22:05.007Z,56.08
2023-07-15T22:25:09.151Z,55.01
2023-07-15T22:28:12.249Z,55.36
2023-07-15T22:31:15.364Z,54.95
2023-07-15T22:34:18.517Z,55.23
2023-07-15T22:37:23.058Z,55.51
2023-07-15T22:40:26.109Z,55.36
2023-07-15T22:43:29.231Z,54.81
2023-07-15T22:46:32.345Z,55.86
2023-07-15T22:49:35.429Z,55.38
2023-07-15T22:52:40.824Z,55.87
2023-07-15T22:55:43.922Z,56.14
2023-07-15T22:58:47.076Z,55.64
2023-07-15T23:01:50.450Z,55.69
2023-07-15T23:04:53.653Z,55.96
2023-07-15T23:07:58.092Z,55.36
2023-07-15T23:11:01.280Z,55.64
2023-07-15T23:14:04.460Z,55.20
2023-07-15T23:17:08.055Z,54.69
2023-07-15T23:20:11.551Z,55.47
2023-07-15T23:23:17.932Z,55.27
2023-07-15T23:26:21.516Z,55.63
2023-07-15T23:29:24.612Z,54.34
2023-07-15T23:32:29.816Z,53.95
2023-07-15T23:35:33.492Z,54.56
2023-07-15T23:38:38.810Z,54.03
2023-07-15T23:41:41.974Z,54.38
2023-07-15T23:44:45.082Z,53.75
2023-07-15T23:47:48.236Z,54.43
2023-07-15T23:50:51.421Z,53.71
2023-07-15T23:53:55.909Z,53.39
2023-07-15T23:56:59.007Z,54.18
